Overview Statistics Trail Chart Weather Telemetry Raw packets
 

This is the latest recevied weather packets stored in our database for station/object KI5NXU. If no packets are shown the sender has not sent any weather packets the latest 10 day(s).

<< 73 74 75 76 77 78 79 >>
Time Temp. Humidity Pressure Rain* Wind** Luminosity Snow
1787850804 26.67° C 79% 1017.8 hPa 0 mm - 244 W/m² -
1787850500 26.67° C 80% 1017.8 hPa 0 mm - 202 W/m² -
1787850195 26.11° C 79% 1018 hPa 1.27 mm - 170 W/m² -
1787849890 25.56° C 81% 1018.2 hPa 6.1 mm - 140 W/m² -
1787849584 26.67° C 72% 1018 hPa 4.83 mm - 112 W/m² -
1787849283 27.78° C 65% 1017.6 hPa 0 mm - 94 W/m² -
1787848982 30° C 68% 1017.8 hPa 0 mm - 124 W/m² -
1787848678 33.33° C 59% 1017.8 hPa 0 mm - 188 W/m² -
1787848373 33.89° C 58% 1017.5 hPa 0 mm - 544 W/m² -
1787848073 34.44° C 56% 1017.4 hPa 0 mm - 338 W/m² -
1787847773 34.44° C 57% 1017.5 hPa 0 mm - 680 W/m² -
1787847468 33.89° C 58% 1017.4 hPa 0 mm - 669 W/m² -
1787847163 33.89° C 57% 1017.6 hPa 0 mm - 648 W/m² -
1787846860 33.89° C 58% 1017.5 hPa 0 mm - 514 W/m² -
1787846554 33.89° C 57% 1017.6 hPa 0 mm - 551 W/m² -
1787846249 33.33° C 61% 1017.7 hPa 0 mm - 627 W/m² -
1787845945 32.78° C 61% 1017.9 hPa 0 mm - 598 W/m² -
1787845641 32.78° C 61% 1017.7 hPa 0 mm - 529 W/m² -
1787845340 32.78° C 63% 1017.6 hPa 0 mm - 504 W/m² -
1787845036 32.22° C 64% 1017.2 hPa 0 mm - 468 W/m² -
1787844732 32.22° C 63% 1017.2 hPa 0 mm - 420 W/m² -
1787844430 32.22° C 63% 1017.4 hPa 0 mm - 474 W/m² -
1787844126 31.67° C 63% 1017.4 hPa 0 mm - 465 W/m² -
1787843820 31.67° C 64% 1017.1 hPa 0 mm - 422 W/m² -
1787843515 31.67° C 64% 1017.2 hPa 0 mm - 405 W/m² -

* Rain latest hour (hover to see other rain measurements)
** Current wind speed in m/s (hover to see current wind gust speed)